sensor_id;sensor_type;location;lat;lon;timestamp;temperature;humidity
51383;DHT22;37475;43.358;1.248;2023-01-16T00:01:26;2.30;89.10
51383;DHT22;37475;43.358;1.248;2023-01-16T00:03:52;2.30;89.20
51383;DHT22;37475;43.358;1.248;2023-01-16T00:06:18;2.30;89.30
51383;DHT22;37475;43.358;1.248;2023-01-16T00:08:44;2.30;89.20
51383;DHT22;37475;43.358;1.248;2023-01-16T00:11:11;2.20;89.20
51383;DHT22;37475;43.358;1.248;2023-01-16T00:13:38;2.20;89.20
51383;DHT22;37475;43.358;1.248;2023-01-16T00:16:05;2.20;89.20
51383;DHT22;37475;43.358;1.248;2023-01-16T00:18:31;2.20;89.10
51383;DHT22;37475;43.358;1.248;2023-01-16T00:20:57;2.20;89.00
51383;DHT22;37475;43.358;1.248;2023-01-16T00:23:23;2.20;89.40
51383;DHT22;37475;43.358;1.248;2023-01-16T00:25:49;2.10;89.50
51383;DHT22;37475;43.358;1.248;2023-01-16T00:28:15;2.00;89.70
51383;DHT22;37475;43.358;1.248;2023-01-16T00:30:42;1.90;90.20
51383;DHT22;37475;43.358;1.248;2023-01-16T00:33:08;1.80;90.50
51383;DHT22;37475;43.358;1.248;2023-01-16T00:35:34;1.80;90.70
51383;DHT22;37475;43.358;1.248;2023-01-16T00:38:00;1.80;91.00
51383;DHT22;37475;43.358;1.248;2023-01-16T00:40:26;1.80;91.00
51383;DHT22;37475;43.358;1.248;2023-01-16T00:42:53;1.80;91.10
51383;DHT22;37475;43.358;1.248;2023-01-16T00:45:18;1.80;91.20
51383;DHT22;37475;43.358;1.248;2023-01-16T00:47:44;1.90;91.50
51383;DHT22;37475;43.358;1.248;2023-01-16T00:50:10;1.90;91.30
51383;DHT22;37475;43.358;1.248;2023-01-16T00:52:36;1.90;91.30
51383;DHT22;37475;43.358;1.248;2023-01-16T00:55:03;1.90;91.40
51383;DHT22;37475;43.358;1.248;2023-01-16T00:57:29;1.90;91.30
51383;DHT22;37475;43.358;1.248;2023-01-16T00:59:55;1.90;91.10
51383;DHT22;37475;43.358;1.248;2023-01-16T01:02:21;1.90;91.00
51383;DHT22;37475;43.358;1.248;2023-01-16T01:04:46;1.90;91.00
51383;DHT22;37475;43.358;1.248;2023-01-16T01:07:12;1.90;91.00
51383;DHT22;37475;43.358;1.248;2023-01-16T01:09:38;1.90;90.90
51383;DHT22;37475;43.358;1.248;2023-01-16T01:12:04;1.90;91.00
51383;DHT22;37475;43.358;1.248;2023-01-16T01:14:30;1.80;90.90
51383;DHT22;37475;43.358;1.248;2023-01-16T01:16:55;1.70;90.80
51383;DHT22;37475;43.358;1.248;2023-01-16T01:19:21;1.80;90.80
51383;DHT22;37475;43.358;1.248;2023-01-16T01:21:47;1.80;90.80
51383;DHT22;37475;43.358;1.248;2023-01-16T01:24:13;1.80;90.80
51383;DHT22;37475;43.358;1.248;2023-01-16T01:26:39;1.80;90.70
51383;DHT22;37475;43.358;1.248;2023-01-16T01:29:05;1.70;90.50
51383;DHT22;37475;43.358;1.248;2023-01-16T01:31:31;1.60;90.70
51383;DHT22;37475;43.358;1.248;2023-01-16T01:33:57;1.60;90.90
51383;DHT22;37475;43.358;1.248;2023-01-16T01:36:22;1.60;91.00
51383;DHT22;37475;43.358;1.248;2023-01-16T01:38:48;1.60;91.00
51383;DHT22;37475;43.358;1.248;2023-01-16T01:41:16;1.60;90.90
51383;DHT22;37475;43.358;1.248;2023-01-16T01:43:47;1.60;90.90
51383;DHT22;37475;43.358;1.248;2023-01-16T01:46:39;1.60;91.00
51383;DHT22;37475;43.358;1.248;2023-01-16T01:51:49;1.60;90.80
51383;DHT22;37475;43.358;1.248;2023-01-16T01:54:21;1.40;90.80
51383;DHT22;37475;43.358;1.248;2023-01-16T01:56:58;1.40;91.00
51383;DHT22;37475;43.358;1.248;2023-01-16T01:59:46;1.30;91.30
51383;DHT22;37475;43.358;1.248;2023-01-16T02:02:17;1.40;91.40
51383;DHT22;37475;43.358;1.248;2023-01-16T02:04:46;1.30;91.60
51383;DHT22;37475;43.358;1.248;2023-01-16T02:07:16;1.30;91.70
51383;DHT22;37475;43.358;1.248;2023-01-16T02:09:43;1.30;91.90
51383;DHT22;37475;43.358;1.248;2023-01-16T02:12:11;1.30;92.00
51383;DHT22;37475;43.358;1.248;2023-01-16T02:14:41;1.40;92.00
51383;DHT22;37475;43.358;1.248;2023-01-16T02:17:13;1.40;92.10
51383;DHT22;37475;43.358;1.248;2023-01-16T02:32:29;1.70;92.30
51383;DHT22;37475;43.358;1.248;2023-01-16T02:37:36;1.70;92.30
51383;DHT22;37475;43.358;1.248;2023-01-16T02:40:27;1.70;92.20
51383;DHT22;37475;43.358;1.248;2023-01-16T02:46:15;1.80;92.10
51383;DHT22;37475;43.358;1.248;2023-01-16T02:52:12;1.90;92.30
51383;DHT22;37475;43.358;1.248;2023-01-16T02:57:20;2.00;91.90
51383;DHT22;37475;43.358;1.248;2023-01-16T02:59:51;2.10;91.20
51383;DHT22;37475;43.358;1.248;2023-01-16T03:02:16;2.20;90.50
51383;DHT22;37475;43.358;1.248;2023-01-16T03:04:49;2.30;90.00
51383;DHT22;37475;43.358;1.248;2023-01-16T03:07:43;2.50;89.90
51383;DHT22;37475;43.358;1.248;2023-01-16T03:14:08;3.40;82.50
51383;DHT22;37475;43.358;1.248;2023-01-16T03:17:03;3.90;79.80
51383;DHT22;37475;43.358;1.248;2023-01-16T03:25:34;3.70;84.90
51383;DHT22;37475;43.358;1.248;2023-01-16T03:31:00;3.60;84.70
51383;DHT22;37475;43.358;1.248;2023-01-16T03:36:53;3.60;86.10
51383;DHT22;37475;43.358;1.248;2023-01-16T03:39:28;3.80;86.20
51383;DHT22;37475;43.358;1.248;2023-01-16T03:42:02;3.90;86.30
51383;DHT22;37475;43.358;1.248;2023-01-16T03:44:39;4.10;85.40
51383;DHT22;37475;43.358;1.248;2023-01-16T03:47:10;4.20;85.80
51383;DHT22;37475;43.358;1.248;2023-01-16T03:49:45;4.10;87.10
51383;DHT22;37475;43.358;1.248;2023-01-16T03:52:17;4.00;87.50
51383;DHT22;37475;43.358;1.248;2023-01-16T03:54:55;4.10;88.40
51383;DHT22;37475;43.358;1.248;2023-01-16T03:57:37;4.20;88.60
51383;DHT22;37475;43.358;1.248;2023-01-16T04:00:06;4.30;89.10
51383;DHT22;37475;43.358;1.248;2023-01-16T04:02:34;4.30;89.20
51383;DHT22;37475;43.358;1.248;2023-01-16T04:05:26;4.40;89.50
51383;DHT22;37475;43.358;1.248;2023-01-16T04:08:09;4.50;89.50
51383;DHT22;37475;43.358;1.248;2023-01-16T04:10:43;4.60;89.50
51383;DHT22;37475;43.358;1.248;2023-01-16T04:13:17;4.60;89.50
51383;DHT22;37475;43.358;1.248;2023-01-16T04:15:48;4.70;89.40
51383;DHT22;37475;43.358;1.248;2023-01-16T04:18:18;4.70;89.20
51383;DHT22;37475;43.358;1.248;2023-01-16T04:20:46;4.70;89.30
51383;DHT22;37475;43.358;1.248;2023-01-16T04:23:15;4.70;89.70
51383;DHT22;37475;43.358;1.248;2023-01-16T04:25:42;4.70;89.80
51383;DHT22;37475;43.358;1.248;2023-01-16T04:28:08;4.70;89.70
51383;DHT22;37475;43.358;1.248;2023-01-16T04:30:34;4.70;90.10
51383;DHT22;37475;43.358;1.248;2023-01-16T04:33:03;4.70;90.20
51383;DHT22;37475;43.358;1.248;2023-01-16T04:35:30;4.70;90.70
51383;DHT22;37475;43.358;1.248;2023-01-16T04:37:56;4.70;90.90
51383;DHT22;37475;43.358;1.248;2023-01-16T04:40:22;4.60;91.50
51383;DHT22;37475;43.358;1.248;2023-01-16T04:42:48;4.60;91.90
51383;DHT22;37475;43.358;1.248;2023-01-16T04:45:14;4.50;92.10
51383;DHT22;37475;43.358;1.248;2023-01-16T04:47:41;4.60;92.30
51383;DHT22;37475;43.358;1.248;2023-01-16T04:50:10;4.60;92.30
51383;DHT22;37475;43.358;1.248;2023-01-16T04:52:36;4.40;92.60
51383;DHT22;37475;43.358;1.248;2023-01-16T04:55:02;4.50;92.90
51383;DHT22;37475;43.358;1.248;2023-01-16T04:57:28;4.50;92.90
51383;DHT22;37475;43.358;1.248;2023-01-16T04:59:54;4.50;93.00
51383;DHT22;37475;43.358;1.248;2023-01-16T05:02:20;4.50;93.10
51383;DHT22;37475;43.358;1.248;2023-01-16T05:04:45;4.50;93.20
51383;DHT22;37475;43.358;1.248;2023-01-16T05:07:11;4.50;93.30
51383;DHT22;37475;43.358;1.248;2023-01-16T05:09:37;4.50;93.40
51383;DHT22;37475;43.358;1.248;2023-01-16T05:12:03;4.50;93.30
51383;DHT22;37475;43.358;1.248;2023-01-16T05:14:29;4.60;93.40
51383;DHT22;37475;43.358;1.248;2023-01-16T05:16:55;4.60;93.30
51383;DHT22;37475;43.358;1.248;2023-01-16T05:19:21;4.60;93.40
51383;DHT22;37475;43.358;1.248;2023-01-16T05:21:47;4.60;93.40
51383;DHT22;37475;43.358;1.248;2023-01-16T05:24:12;4.60;93.30
51383;DHT22;37475;43.358;1.248;2023-01-16T05:26:38;4.70;93.30
51383;DHT22;37475;43.358;1.248;2023-01-16T05:29:04;4.70;93.20
51383;DHT22;37475;43.358;1.248;2023-01-16T05:31:30;4.70;93.20
51383;DHT22;37475;43.358;1.248;2023-01-16T05:33:56;4.60;93.30
51383;DHT22;37475;43.358;1.248;2023-01-16T05:36:21;4.80;93.40
51383;DHT22;37475;43.358;1.248;2023-01-16T05:38:47;4.70;93.40
51383;DHT22;37475;43.358;1.248;2023-01-16T05:41:13;4.70;93.30
51383;DHT22;37475;43.358;1.248;2023-01-16T05:43:39;4.70;93.40
51383;DHT22;37475;43.358;1.248;2023-01-16T05:46:05;4.70;93.40
51383;DHT22;37475;43.358;1.248;2023-01-16T05:48:31;4.60;93.20
51383;DHT22;37475;43.358;1.248;2023-01-16T05:50:59;4.70;92.60
51383;DHT22;37475;43.358;1.248;2023-01-16T05:53:26;5.00;91.90
51383;DHT22;37475;43.358;1.248;2023-01-16T05:55:53;5.10;90.70
51383;DHT22;37475;43.358;1.248;2023-01-16T05:58:19;5.20;90.30
51383;DHT22;37475;43.358;1.248;2023-01-16T06:00:45;5.40;89.90
51383;DHT22;37475;43.358;1.248;2023-01-16T06:03:11;6.10;88.50
51383;DHT22;37475;43.358;1.248;2023-01-16T06:05:37;6.70;87.00
51383;DHT22;37475;43.358;1.248;2023-01-16T06:08:03;7.10;86.20
51383;DHT22;37475;43.358;1.248;2023-01-16T06:10:30;7.50;85.00
51383;DHT22;37475;43.358;1.248;2023-01-16T06:12:56;7.60;84.00
51383;DHT22;37475;43.358;1.248;2023-01-16T06:15:22;7.60;84.20
51383;DHT22;37475;43.358;1.248;2023-01-16T06:17:48;7.60;84.30
51383;DHT22;37475;43.358;1.248;2023-01-16T06:20:17;7.60;84.90
51383;DHT22;37475;43.358;1.248;2023-01-16T06:22:44;7.40;85.70
51383;DHT22;37475;43.358;1.248;2023-01-16T06:25:10;7.40;85.50
51383;DHT22;37475;43.358;1.248;2023-01-16T06:27:36;7.40;86.30
51383;DHT22;37475;43.358;1.248;2023-01-16T06:30:03;7.30;86.20
51383;DHT22;37475;43.358;1.248;2023-01-16T06:32:30;7.30;86.70
51383;DHT22;37475;43.358;1.248;2023-01-16T06:34:56;7.20;87.10
51383;DHT22;37475;43.358;1.248;2023-01-16T06:37:22;7.10;87.20
51383;DHT22;37475;43.358;1.248;2023-01-16T06:39:47;7.10;88.30
51383;DHT22;37475;43.358;1.248;2023-01-16T06:42:13;7.10;88.40
51383;DHT22;37475;43.358;1.248;2023-01-16T06:44:39;7.10;88.30
51383;DHT22;37475;43.358;1.248;2023-01-16T06:47:05;7.00;89.10
51383;DHT22;37475;43.358;1.248;2023-01-16T06:49:32;6.90;89.60
51383;DHT22;37475;43.358;1.248;2023-01-16T06:51:58;6.90;89.70
51383;DHT22;37475;43.358;1.248;2023-01-16T06:54:26;7.00;89.70
51383;DHT22;37475;43.358;1.248;2023-01-16T06:56:52;7.00;89.50
51383;DHT22;37475;43.358;1.248;2023-01-16T06:59:18;7.00;89.80
51383;DHT22;37475;43.358;1.248;2023-01-16T07:01:44;6.90;90.00
51383;DHT22;37475;43.358;1.248;2023-01-16T07:04:09;7.10;89.80
51383;DHT22;37475;43.358;1.248;2023-01-16T07:06:36;7.00;89.90
51383;DHT22;37475;43.358;1.248;2023-01-16T07:09:03;6.90;90.40
51383;DHT22;37475;43.358;1.248;2023-01-16T07:11:29;6.90;90.30
51383;DHT22;37475;43.358;1.248;2023-01-16T07:13:54;6.90;90.40
51383;DHT22;37475;43.358;1.248;2023-01-16T07:16:40;7.00;90.20
51383;DHT22;37475;43.358;1.248;2023-01-16T07:19:24;7.00;90.20
51383;DHT22;37475;43.358;1.248;2023-01-16T07:22:12;7.00;90.00
51383;DHT22;37475;43.358;1.248;2023-01-16T07:24:57;7.00;90.40
51383;DHT22;37475;43.358;1.248;2023-01-16T07:27:24;6.90;90.60
51383;DHT22;37475;43.358;1.248;2023-01-16T07:29:50;6.90;90.60
51383;DHT22;37475;43.358;1.248;2023-01-16T07:32:17;7.00;90.40
51383;DHT22;37475;43.358;1.248;2023-01-16T07:34:42;7.00;90.50
51383;DHT22;37475;43.358;1.248;2023-01-16T07:37:08;7.00;90.40
51383;DHT22;37475;43.358;1.248;2023-01-16T07:39:36;7.00;90.50
51383;DHT22;37475;43.358;1.248;2023-01-16T07:42:07;6.90;90.70
51383;DHT22;37475;43.358;1.248;2023-01-16T07:44:33;7.00;90.80
51383;DHT22;37475;43.358;1.248;2023-01-16T07:46:59;6.90;90.80
51383;DHT22;37475;43.358;1.248;2023-01-16T07:49:25;6.90;91.00
51383;DHT22;37475;43.358;1.248;2023-01-16T07:51:51;6.90;91.00
51383;DHT22;37475;43.358;1.248;2023-01-16T07:54:17;6.90;91.00
51383;DHT22;37475;43.358;1.248;2023-01-16T07:56:43;6.90;91.10
51383;DHT22;37475;43.358;1.248;2023-01-16T07:59:08;6.90;91.20
51383;DHT22;37475;43.358;1.248;2023-01-16T08:01:34;6.90;91.10
51383;DHT22;37475;43.358;1.248;2023-01-16T08:04:00;7.00;90.90
51383;DHT22;37475;43.358;1.248;2023-01-16T08:06:26;7.00;90.70
51383;DHT22;37475;43.358;1.248;2023-01-16T08:08:52;7.10;90.20
51383;DHT22;37475;43.358;1.248;2023-01-16T08:11:18;7.30;89.30
51383;DHT22;37475;43.358;1.248;2023-01-16T08:14:05;7.40;88.80
51383;DHT22;37475;43.358;1.248;2023-01-16T08:16:32;7.30;89.30
51383;DHT22;37475;43.358;1.248;2023-01-16T08:18:58;7.50;88.30
51383;DHT22;37475;43.358;1.248;2023-01-16T08:21:24;7.60;88.00
51383;DHT22;37475;43.358;1.248;2023-01-16T08:23:51;7.60;88.10
51383;DHT22;37475;43.358;1.248;2023-01-16T08:26:17;7.60;88.20
51383;DHT22;37475;43.358;1.248;2023-01-16T08:28:43;7.60;88.30
51383;DHT22;37475;43.358;1.248;2023-01-16T08:31:11;7.60;88.60
51383;DHT22;37475;43.358;1.248;2023-01-16T08:33:39;7.70;88.00
51383;DHT22;37475;43.358;1.248;2023-01-16T08:36:08;7.60;88.20
51383;DHT22;37475;43.358;1.248;2023-01-16T08:38:35;7.60;88.70
51383;DHT22;37475;43.358;1.248;2023-01-16T08:41:02;7.60;88.70
51383;DHT22;37475;43.358;1.248;2023-01-16T08:43:28;7.60;89.30
51383;DHT22;37475;43.358;1.248;2023-01-16T08:46:23;7.60;88.10
51383;DHT22;37475;43.358;1.248;2023-01-16T08:49:13;7.60;88.80
51383;DHT22;37475;43.358;1.248;2023-01-16T08:51:58;7.60;88.60
51383;DHT22;37475;43.358;1.248;2023-01-16T08:54:25;7.60;88.60
51383;DHT22;37475;43.358;1.248;2023-01-16T08:56:51;7.60;88.70
51383;DHT22;37475;43.358;1.248;2023-01-16T08:59:17;7.60;88.20
51383;DHT22;37475;43.358;1.248;2023-01-16T09:01:43;7.70;88.00
51383;DHT22;37475;43.358;1.248;2023-01-16T09:04:09;7.60;87.80
51383;DHT22;37475;43.358;1.248;2023-01-16T09:06:35;7.70;87.50
51383;DHT22;37475;43.358;1.248;2023-01-16T09:09:06;7.70;86.80
51383;DHT22;37475;43.358;1.248;2023-01-16T09:11:34;7.80;86.60
51383;DHT22;37475;43.358;1.248;2023-01-16T09:14:18;7.90;85.10
51383;DHT22;37475;43.358;1.248;2023-01-16T09:16:45;8.10;83.90
51383;DHT22;37475;43.358;1.248;2023-01-16T09:19:11;8.10;84.30
51383;DHT22;37475;43.358;1.248;2023-01-16T09:21:37;8.10;83.50
51383;DHT22;37475;43.358;1.248;2023-01-16T09:24:03;8.10;83.60
51383;DHT22;37475;43.358;1.248;2023-01-16T09:26:29;8.00;83.90
51383;DHT22;37475;43.358;1.248;2023-01-16T09:28:56;8.10;82.70
51383;DHT22;37475;43.358;1.248;2023-01-16T09:31:22;8.00;83.90
51383;DHT22;37475;43.358;1.248;2023-01-16T09:33:48;8.00;84.70
51383;DHT22;37475;43.358;1.248;2023-01-16T09:36:15;7.90;84.80
51383;DHT22;37475;43.358;1.248;2023-01-16T09:38:40;7.90;85.00
51383;DHT22;37475;43.358;1.248;2023-01-16T09:41:10;7.90;85.00
51383;DHT22;37475;43.358;1.248;2023-01-16T09:44:00;7.90;85.60
51383;DHT22;37475;43.358;1.248;2023-01-16T09:46:29;7.70;86.50
51383;DHT22;37475;43.358;1.248;2023-01-16T09:49:17;7.80;86.40
51383;DHT22;37475;43.358;1.248;2023-01-16T09:51:54;7.90;85.30
51383;DHT22;37475;43.358;1.248;2023-01-16T09:54:56;8.00;84.80
51383;DHT22;37475;43.358;1.248;2023-01-16T09:57:44;8.10;83.40
51383;DHT22;37475;43.358;1.248;2023-01-16T10:00:31;8.10;83.70
51383;DHT22;37475;43.358;1.248;2023-01-16T10:02:58;8.10;83.60
51383;DHT22;37475;43.358;1.248;2023-01-16T10:05:32;8.20;83.10
51383;DHT22;37475;43.358;1.248;2023-01-16T10:08:11;8.20;82.90
51383;DHT22;37475;43.358;1.248;2023-01-16T10:11:50;8.30;81.90
51383;DHT22;37475;43.358;1.248;2023-01-16T10:23:38;8.40;80.60
51383;DHT22;37475;43.358;1.248;2023-01-16T10:26:28;8.40;80.30
51383;DHT22;37475;43.358;1.248;2023-01-16T10:35:16;8.30;81.20
51383;DHT22;37475;43.358;1.248;2023-01-16T10:37:46;8.20;82.10
51383;DHT22;37475;43.358;1.248;2023-01-16T10:40:19;8.10;83.50
51383;DHT22;37475;43.358;1.248;2023-01-16T10:43:02;8.00;84.00
51383;DHT22;37475;43.358;1.248;2023-01-16T10:45:50;8.00;83.70
51383;DHT22;37475;43.358;1.248;2023-01-16T10:48:35;8.10;82.70
51383;DHT22;37475;43.358;1.248;2023-01-16T10:51:20;8.20;82.10
51383;DHT22;37475;43.358;1.248;2023-01-16T10:53:45;8.30;81.10
51383;DHT22;37475;43.358;1.248;2023-01-16T10:56:11;8.40;80.40
51383;DHT22;37475;43.358;1.248;2023-01-16T10:58:38;8.40;80.90
51383;DHT22;37475;43.358;1.248;2023-01-16T11:01:17;8.40;80.90
51383;DHT22;37475;43.358;1.248;2023-01-16T11:04:05;8.40;80.50
51383;DHT22;37475;43.358;1.248;2023-01-16T11:06:31;8.40;80.40
51383;DHT22;37475;43.358;1.248;2023-01-16T11:09:02;8.50;79.50
51383;DHT22;37475;43.358;1.248;2023-01-16T11:11:40;8.50;80.00
51383;DHT22;37475;43.358;1.248;2023-01-16T11:14:30;8.60;78.50
51383;DHT22;37475;43.358;1.248;2023-01-16T11:20:21;8.50;78.90
51383;DHT22;37475;43.358;1.248;2023-01-16T11:23:05;8.50;79.10
51383;DHT22;37475;43.358;1.248;2023-01-16T11:25:38;8.50;79.10
51383;DHT22;37475;43.358;1.248;2023-01-16T11:28:06;8.50;79.40
51383;DHT22;37475;43.358;1.248;2023-01-16T11:30:39;8.50;78.30
51383;DHT22;37475;43.358;1.248;2023-01-16T11:33:17;8.60;78.10
51383;DHT22;37475;43.358;1.248;2023-01-16T11:35:55;8.60;79.00
51383;DHT22;37475;43.358;1.248;2023-01-16T11:38:24;8.50;79.20
51383;DHT22;37475;43.358;1.248;2023-01-16T11:40:58;8.50;79.20
51383;DHT22;37475;43.358;1.248;2023-01-16T11:43:27;8.60;78.40
51383;DHT22;37475;43.358;1.248;2023-01-16T11:46:32;8.60;79.30
51383;DHT22;37475;43.358;1.248;2023-01-16T11:49:03;8.50;79.00
51383;DHT22;37475;43.358;1.248;2023-01-16T11:51:32;8.50;78.80
51383;DHT22;37475;43.358;1.248;2023-01-16T11:54:03;8.50;79.00
51383;DHT22;37475;43.358;1.248;2023-01-16T12:02:56;8.50;79.30
51383;DHT22;37475;43.358;1.248;2023-01-16T12:15:24;8.30;79.20
51383;DHT22;37475;43.358;1.248;2023-01-16T12:20:53;8.30;79.50
51383;DHT22;37475;43.358;1.248;2023-01-16T12:26:42;8.20;79.80
51383;DHT22;37475;43.358;1.248;2023-01-16T12:29:33;8.20;79.90
51383;DHT22;37475;43.358;1.248;2023-01-16T12:32:32;8.10;80.10
51383;DHT22;37475;43.358;1.248;2023-01-16T12:35:40;8.10;79.20
51383;DHT22;37475;43.358;1.248;2023-01-16T12:38:36;8.10;79.40
51383;DHT22;37475;43.358;1.248;2023-01-16T12:41:24;8.10;79.60
51383;DHT22;37475;43.358;1.248;2023-01-16T12:44:21;8.10;79.60
51383;DHT22;37475;43.358;1.248;2023-01-16T12:47:05;8.00;79.70
51383;DHT22;37475;43.358;1.248;2023-01-16T12:52:35;8.00;80.70
51383;DHT22;37475;43.358;1.248;2023-01-16T12:58:21;8.00;80.40
51383;DHT22;37475;43.358;1.248;2023-01-16T13:03:35;8.10;80.20
51383;DHT22;37475;43.358;1.248;2023-01-16T13:06:10;8.00;79.80
51383;DHT22;37475;43.358;1.248;2023-01-16T13:08:46;8.00;79.90
51383;DHT22;37475;43.358;1.248;2023-01-16T13:11:50;8.00;79.60
51383;DHT22;37475;43.358;1.248;2023-01-16T13:14:35;8.10;80.10
51383;DHT22;37475;43.358;1.248;2023-01-16T13:17:09;8.10;79.00
51383;DHT22;37475;43.358;1.248;2023-01-16T13:19:40;8.10;78.70
51383;DHT22;37475;43.358;1.248;2023-01-16T13:22:27;8.10;79.20
51383;DHT22;37475;43.358;1.248;2023-01-16T13:25:04;8.10;79.50
51383;DHT22;37475;43.358;1.248;2023-01-16T13:27:38;8.10;78.70
51383;DHT22;37475;43.358;1.248;2023-01-16T13:30:18;8.10;79.10
51383;DHT22;37475;43.358;1.248;2023-01-16T13:32:51;8.10;78.70
51383;DHT22;37475;43.358;1.248;2023-01-16T13:35:45;8.10;79.10
51383;DHT22;37475;43.358;1.248;2023-01-16T13:43:54;8.20;79.10
51383;DHT22;37475;43.358;1.248;2023-01-16T13:46:43;8.10;78.80
51383;DHT22;37475;43.358;1.248;2023-01-16T13:49:21;8.10;78.80
51383;DHT22;37475;43.358;1.248;2023-01-16T13:51:49;8.20;78.70
51383;DHT22;37475;43.358;1.248;2023-01-16T13:54:23;8.20;79.00
51383;DHT22;37475;43.358;1.248;2023-01-16T13:57:14;8.10;79.20
51383;DHT22;37475;43.358;1.248;2023-01-16T13:59:50;8.10;79.50
51383;DHT22;37475;43.358;1.248;2023-01-16T14:02:40;8.10;79.70
51383;DHT22;37475;43.358;1.248;2023-01-16T14:13:37;8.10;79.80
51383;DHT22;37475;43.358;1.248;2023-01-16T14:24:16;8.10;79.40
51383;DHT22;37475;43.358;1.248;2023-01-16T14:26:53;8.10;79.20
51383;DHT22;37475;43.358;1.248;2023-01-16T14:29:27;8.00;80.60
51383;DHT22;37475;43.358;1.248;2023-01-16T14:34:35;7.70;82.50
51383;DHT22;37475;43.358;1.248;2023-01-16T14:37:12;7.50;85.00
51383;DHT22;37475;43.358;1.248;2023-01-16T14:45:34;7.70;82.40
51383;DHT22;37475;43.358;1.248;2023-01-16T14:57:02;7.40;85.00
51383;DHT22;37475;43.358;1.248;2023-01-16T14:59:35;7.40;84.90
51383;DHT22;37475;43.358;1.248;2023-01-16T15:02:06;7.40;84.40
51383;DHT22;37475;43.358;1.248;2023-01-16T15:05:07;7.50;83.70
51383;DHT22;37475;43.358;1.248;2023-01-16T15:07:52;7.50;83.80
51383;DHT22;37475;43.358;1.248;2023-01-16T15:10:34;7.50;83.30
51383;DHT22;37475;43.358;1.248;2023-01-16T15:16:14;7.50;83.00
51383;DHT22;37475;43.358;1.248;2023-01-16T15:18:43;7.50;82.70
51383;DHT22;37475;43.358;1.248;2023-01-16T15:21:28;7.60;82.80
51383;DHT22;37475;43.358;1.248;2023-01-16T15:24:20;7.60;82.20
51383;DHT22;37475;43.358;1.248;2023-01-16T15:29:34;7.60;81.00
51383;DHT22;37475;43.358;1.248;2023-01-16T15:32:14;7.70;80.10
51383;DHT22;37475;43.358;1.248;2023-01-16T15:34:46;7.80;79.40
51383;DHT22;37475;43.358;1.248;2023-01-16T15:37:22;7.80;80.10
51383;DHT22;37475;43.358;1.248;2023-01-16T15:39:49;7.90;79.80
51383;DHT22;37475;43.358;1.248;2023-01-16T15:42:26;7.90;79.40
51383;DHT22;37475;43.358;1.248;2023-01-16T15:45:14;7.80;80.00
51383;DHT22;37475;43.358;1.248;2023-01-16T15:50:59;7.90;78.80
51383;DHT22;37475;43.358;1.248;2023-01-16T15:53:54;7.90;80.00
51383;DHT22;37475;43.358;1.248;2023-01-16T15:56:21;7.70;81.40
51383;DHT22;37475;43.358;1.248;2023-01-16T15:58:51;7.50;83.60
51383;DHT22;37475;43.358;1.248;2023-01-16T16:01:29;7.30;84.40
51383;DHT22;37475;43.358;1.248;2023-01-16T16:03:58;7.20;86.00
51383;DHT22;37475;43.358;1.248;2023-01-16T16:06:25;7.10;86.80
51383;DHT22;37475;43.358;1.248;2023-01-16T16:08:54;7.00;88.00
51383;DHT22;37475;43.358;1.248;2023-01-16T16:11:29;6.90;88.10
51383;DHT22;37475;43.358;1.248;2023-01-16T16:14:28;6.90;88.60
51383;DHT22;37475;43.358;1.248;2023-01-16T16:17:28;6.90;88.70
51383;DHT22;37475;43.358;1.248;2023-01-16T16:20:33;6.80;89.40
51383;DHT22;37475;43.358;1.248;2023-01-16T16:31:04;6.40;90.40
51383;DHT22;37475;43.358;1.248;2023-01-16T16:33:31;6.50;90.40
51383;DHT22;37475;43.358;1.248;2023-01-16T16:36:01;6.40;90.60
51383;DHT22;37475;43.358;1.248;2023-01-16T16:38:48;6.50;90.40
51383;DHT22;37475;43.358;1.248;2023-01-16T16:48:57;6.40;90.60
51383;DHT22;37475;43.358;1.248;2023-01-16T16:51:31;6.40;90.40
51383;DHT22;37475;43.358;1.248;2023-01-16T16:56:26;6.40;90.20
51383;DHT22;37475;43.358;1.248;2023-01-16T16:58:57;6.40;90.20
51383;DHT22;37475;43.358;1.248;2023-01-16T17:01:24;6.40;90.20
51383;DHT22;37475;43.358;1.248;2023-01-16T17:03:56;6.40;90.30
51383;DHT22;37475;43.358;1.248;2023-01-16T17:06:29;6.30;90.50
51383;DHT22;37475;43.358;1.248;2023-01-16T17:08:56;6.30;90.20
51383;DHT22;37475;43.358;1.248;2023-01-16T17:11:23;6.30;90.10
51383;DHT22;37475;43.358;1.248;2023-01-16T17:13:49;6.30;89.90
51383;DHT22;37475;43.358;1.248;2023-01-16T17:16:23;6.20;89.80
51383;DHT22;37475;43.358;1.248;2023-01-16T17:19:22;6.20;89.40
51383;DHT22;37475;43.358;1.248;2023-01-16T17:21:56;6.30;88.80
51383;DHT22;37475;43.358;1.248;2023-01-16T17:24:22;6.30;88.20
51383;DHT22;37475;43.358;1.248;2023-01-16T17:26:48;6.30;88.20
51383;DHT22;37475;43.358;1.248;2023-01-16T17:29:14;6.30;87.90
51383;DHT22;37475;43.358;1.248;2023-01-16T17:31:41;6.30;87.70
51383;DHT22;37475;43.358;1.248;2023-01-16T17:34:16;6.40;86.60
51383;DHT22;37475;43.358;1.248;2023-01-16T17:36:43;6.40;86.50
51383;DHT22;37475;43.358;1.248;2023-01-16T17:39:09;6.50;86.20
51383;DHT22;37475;43.358;1.248;2023-01-16T17:41:37;6.40;86.40
51383;DHT22;37475;43.358;1.248;2023-01-16T17:44:21;6.40;86.40
51383;DHT22;37475;43.358;1.248;2023-01-16T17:47:06;6.40;86.60
51383;DHT22;37475;43.358;1.248;2023-01-16T17:49:33;6.40;86.80
51383;DHT22;37475;43.358;1.248;2023-01-16T17:52:22;6.30;87.20
51383;DHT22;37475;43.358;1.248;2023-01-16T17:54:48;6.20;87.40
51383;DHT22;37475;43.358;1.248;2023-01-16T17:57:33;6.20;87.80
51383;DHT22;37475;43.358;1.248;2023-01-16T17:59:59;6.10;88.60
51383;DHT22;37475;43.358;1.248;2023-01-16T18:02:25;6.00;88.90
51383;DHT22;37475;43.358;1.248;2023-01-16T18:04:51;6.00;89.60
51383;DHT22;37475;43.358;1.248;2023-01-16T18:07:18;5.90;90.00
51383;DHT22;37475;43.358;1.248;2023-01-16T18:09:44;5.80;90.10
51383;DHT22;37475;43.358;1.248;2023-01-16T18:12:11;5.90;90.40
51383;DHT22;37475;43.358;1.248;2023-01-16T18:14:56;5.80;90.50
51383;DHT22;37475;43.358;1.248;2023-01-16T18:17:40;5.80;90.30
51383;DHT22;37475;43.358;1.248;2023-01-16T18:20:06;5.70;90.80
51383;DHT22;37475;43.358;1.248;2023-01-16T18:22:34;5.70;90.80
51383;DHT22;37475;43.358;1.248;2023-01-16T18:25:00;5.70;91.10
51383;DHT22;37475;43.358;1.248;2023-01-16T18:27:27;5.70;91.00
51383;DHT22;37475;43.358;1.248;2023-01-16T18:29:53;5.60;91.00
51383;DHT22;37475;43.358;1.248;2023-01-16T18:32:19;5.70;91.10
51383;DHT22;37475;43.358;1.248;2023-01-16T18:34:57;5.60;91.60
51383;DHT22;37475;43.358;1.248;2023-01-16T18:40:03;5.60;91.50
51383;DHT22;37475;43.358;1.248;2023-01-16T18:42:53;5.60;91.80
51383;DHT22;37475;43.358;1.248;2023-01-16T18:45:38;5.50;92.00
51383;DHT22;37475;43.358;1.248;2023-01-16T18:48:23;5.50;92.10
51383;DHT22;37475;43.358;1.248;2023-01-16T18:51:14;5.40;92.30
51383;DHT22;37475;43.358;1.248;2023-01-16T18:54:00;5.40;92.20
51383;DHT22;37475;43.358;1.248;2023-01-16T18:56:54;5.40;92.30
51383;DHT22;37475;43.358;1.248;2023-01-16T18:59:39;5.40;92.40
51383;DHT22;37475;43.358;1.248;2023-01-16T19:04:53;5.40;92.60